Time;durP1;ratioP1;P1;durP2;ratioP2;P2;SDS_P1;SDS_P2;PMS_P1;PMS_P2;Temp;Humidity;BMP_temperature;BMP_pressure;BME280_temperature;BME280_humidity;BME280_pressure;Samples;Min_cycle;Max_cycle;Signal;HPM_P1;HPM_P2
2021/05/03 00:01:44;;;;;;;14.98;9.43;;;;;;;5.00;nan;101521.66;5047165;28;20024;-79
2021/05/03 00:04:09;;;;;;;17.23;9.82;;;;;;;4.87;nan;101524.25;5049239;28;20017;-80
2021/05/03 00:06:35;;;;;;;13.45;9.48;;;;;;;4.76;nan;101528.22;5051675;28;20033;-80
2021/05/03 00:09:01;;;;;;;13.57;9.10;;;;;;;4.93;nan;101531.44;5051394;28;20037;-79
2021/05/03 00:11:26;;;;;;;12.40;7.63;;;;;;;4.79;nan;101522.53;5050584;28;20021;-78
2021/05/03 00:13:52;;;;;;;12.68;8.10;;;;;;;4.67;nan;101528.53;5054077;28;20210;-78
2021/05/03 00:16:17;;;;;;;14.27;8.52;;;;;;;4.76;nan;101530.88;5048047;28;20071;-79
2021/05/03 00:18:43;;;;;;;11.90;8.45;;;;;;;4.72;nan;101521.66;5051816;28;20079;-79
2021/05/03 00:21:08;;;;;;;13.48;8.00;;;;;;;4.74;nan;101524.94;5047948;28;20023;-78
2021/05/03 00:23:34;;;;;;;12.45;8.48;;;;;;;4.73;nan;101527.78;5051706;28;20119;-78
2021/05/03 00:25:59;;;;;;;11.60;7.50;;;;;;;4.75;nan;101523.09;5045791;28;20033;-78
2021/05/03 00:28:25;;;;;;;12.00;7.78;;;;;;;4.61;nan;101527.47;5051004;28;20029;-79
2021/05/03 00:30:50;;;;;;;11.20;7.22;;;;;;;4.63;nan;101530.75;5054881;28;20032;-79
2021/05/03 00:33:16;;;;;;;11.88;8.18;;;;;;;4.57;nan;101528.84;5043512;28;20032;-79
2021/05/03 00:35:41;;;;;;;11.20;8.52;;;;;;;4.60;nan;101532.97;5041429;28;20028;-78
2021/05/03 00:38:07;;;;;;;14.57;9.25;;;;;;;4.54;nan;101530.06;5054573;28;20086;-78
2021/05/03 00:40:32;;;;;;;14.48;9.23;;;;;;;4.65;nan;101536.69;5040205;28;20140;-78
2021/05/03 00:42:58;;;;;;;14.70;8.95;;;;;;;4.63;nan;101543.19;5050831;28;20059;-79
2021/05/03 00:45:24;;;;;;;14.73;9.35;;;;;;;4.57;nan;101544.78;5048328;28;20040;-79
2021/05/03 00:47:51;;;;;;;14.55;9.25;;;;;;;4.54;nan;101539.84;5057586;28;20024;-79
2021/05/03 00:50:19;;;;;;;13.30;9.02;;;;;;;4.58;nan;101535.81;5040341;28;20120;-78
2021/05/03 00:52:45;;;;;;;13.50;8.35;;;;;;;4.51;nan;101546.38;5051920;28;20025;-79
2021/05/03 00:55:12;;;;;;;15.88;10.18;;;;;;;4.47;nan;101539.75;5049600;28;20036;-78
2021/05/03 00:57:39;;;;;;;11.93;7.68;;;;;;;4.55;nan;101539.66;5067694;28;20454;-78
2021/05/03 01:00:09;;;;;;;13.18;8.82;;;;;;;4.46;nan;101550.56;5047421;28;20029;-78
2021/05/03 01:02:35;;;;;;;15.30;8.82;;;;;;;4.49;nan;101551.03;5057753;28;20024;-79
2021/05/03 01:05:01;;;;;;;16.67;10.20;;;;;;;4.42;nan;101549.31;5055244;28;20032;-78
2021/05/03 01:07:26;;;;;;;14.85;9.07;;;;;;;4.46;nan;101551.38;5051597;28;20033;-78
2021/05/03 01:09:52;;;;;;;15.18;9.05;;;;;;;4.41;nan;101542.38;5052035;28;20021;-78
2021/05/03 01:12:17;;;;;;;15.57;9.77;;;;;;;4.41;nan;101552.97;5049385;28;20025;-78
2021/05/03 01:14:43;;;;;;;11.73;7.35;;;;;;;4.41;nan;101553.78;5052591;28;20029;-78
2021/05/03 01:17:08;;;;;;;12.50;8.55;;;;;;;4.48;nan;101548.53;5046276;28;20082;-79
2021/05/03 01:19:34;;;;;;;15.45;9.98;;;;;;;4.42;nan;101555.44;5063458;28;20043;-78
2021/05/03 01:21:59;;;;;;;14.80;9.50;;;;;;;4.44;nan;101552.59;5057056;28;20055;-78
2021/05/03 01:24:25;;;;;;;14.00;8.70;;;;;;;4.47;nan;101554.88;5056069;28;20032;-79
2021/05/03 01:26:51;;;;;;;16.83;8.93;;;;;;;4.48;nan;101552.03;5056481;28;20049;-79
2021/05/03 01:29:17;;;;;;;15.93;8.93;;;;;;;4.46;nan;101559.34;5055162;28;20016;-78
2021/05/03 01:31:50;;;;;;;11.38;7.32;;;;;;;4.39;nan;101555.00;5048390;28;20052;-78
2021/05/03 01:34:16;;;;;;;10.02;7.18;;;;;;;4.43;nan;101562.38;5048393;28;20032;-78
2021/05/03 01:36:43;;;;;;;10.15;6.07;;;;;;;4.38;nan;101564.78;5046000;28;20551;-79
2021/05/03 01:39:11;;;;;;;9.02;6.28;;;;;;;4.36;nan;101563.34;5048233;28;20095;-78
2021/05/03 01:41:36;;;;;;;12.02;5.75;;;;;;;4.39;nan;101561.13;5047563;28;20024;-79
2021/05/03 01:44:04;;;;;;;8.40;4.88;;;;;;;4.26;nan;101568.94;5047071;28;20017;-78
2021/05/03 01:46:32;;;;;;;6.03;4.13;;;;;;;4.16;nan;101565.75;5046399;28;20476;-78
2021/05/03 01:48:59;;;;;;;4.45;3.15;;;;;;;4.11;nan;101563.66;5047102;28;20033;-78
2021/05/03 01:51:25;;;;;;;3.72;2.30;;;;;;;4.12;nan;101572.41;5050005;28;20029;-79
2021/05/03 01:53:50;;;;;;;3.42;1.88;;;;;;;4.05;nan;101568.88;5043340;28;20050;-78
2021/05/03 01:56:17;;;;;;;2.47;1.50;;;;;;;3.98;nan;101560.03;5049043;28;20029;-78
2021/05/03 01:58:42;;;;;;;2.92;1.63;;;;;;;3.90;nan;101563.59;5049215;28;20036;-78
2021/05/03 02:01:08;;;;;;;2.90;1.35;;;;;;;3.90;nan;101569.72;5045010;28;20032;-78
2021/05/03 02:03:33;;;;;;;4.07;1.42;;;;;;;3.89;nan;101570.72;5051872;28;20443;-78
2021/05/03 02:06:00;;;;;;;1.77;1.50;;;;;;;3.93;nan;101571.97;5055930;28;20158;-78
2021/05/03 02:08:25;;;;;;;2.70;1.38;;;;;;;3.89;nan;101569.91;5050545;28;20033;-78
2021/05/03 02:10:52;;;;;;;2.25;1.42;;;;;;;3.88;nan;101574.38;5050442;28;20021;-78
2021/05/03 02:13:18;;;;;;;2.03;1.35;;;;;;;3.89;nan;101576.00;5054016;28;20021;-77
2021/05/03 02:15:48;;;;;;;1.92;1.33;;;;;;;3.93;nan;101571.97;5046429;28;20116;-78
2021/05/03 02:18:14;;;;;;;1.92;1.08;;;;;;;3.89;nan;101570.72;5046103;28;20386;-80
2021/05/03 02:20:41;;;;;;;1.35;1.00;;;;;;;3.89;nan;101573.38;5061493;28;20032;-79
2021/05/03 02:23:06;;;;;;;1.88;1.17;;;;;;;3.99;nan;101573.09;5050280;28;20027;-78
2021/05/03 02:25:32;;;;;;;1.00;0.80;;;;;;;4.02;nan;101569.25;5057950;28;20017;-78
2021/05/03 02:27:59;;;;;;;2.30;1.05;;;;;;;4.20;nan;101577.63;5049667;28;20055;-78
2021/05/03 02:30:25;;;;;;;1.65;1.15;;;;;;;4.25;nan;101575.25;5050533;28;20032;-79
2021/05/03 02:32:51;;;;;;;1.73;1.08;;;;;;;4.36;nan;101572.13;5049803;28;20056;-78
2021/05/03 02:35:19;;;;;;;1.98;1.50;;;;;;;4.34;nan;101575.97;5043739;28;20029;-79
2021/05/03 02:37:48;;;;;;;1.65;1.25;;;;;;;4.32;nan;101580.66;5058069;28;20075;-78
2021/05/03 02:40:15;;;;;;;2.60;1.23;;;;;;;4.18;nan;101571.69;5049893;28;20055;-79
2021/05/03 02:42:41;;;;;;;2.60;1.73;;;;;;;4.36;nan;101576.59;5049250;28;20028;-78
2021/05/03 02:45:07;;;;;;;2.17;1.73;;;;;;;4.06;nan;101579.28;5045627;28;20039;-79
2021/05/03 02:47:33;;;;;;;1.60;1.40;;;;;;;4.17;nan;101572.72;5041047;28;20029;-79
2021/05/03 02:49:58;;;;;;;2.00;1.50;;;;;;;4.30;nan;101572.84;5045720;28;20040;-79
2021/05/03 02:52:24;;;;;;;5.47;2.33;;;;;;;4.19;nan;101570.69;5051357;28;20029;-79
2021/05/03 02:54:49;;;;;;;2.92;2.28;;;;;;;4.26;nan;101576.88;5050400;28;20028;-79
2021/05/03 02:57:15;;;;;;;4.75;2.65;;;;;;;4.27;nan;101580.34;5049257;28;20087;-79
2021/05/03 02:59:40;;;;;;;4.30;2.92;;;;;;;4.18;nan;101574.34;5046249;28;20036;-79
2021/05/03 03:02:06;;;;;;;4.20;2.67;;;;;;;4.11;nan;101574.25;5044325;28;20021;-79
2021/05/03 03:04:31;;;;;;;3.83;2.90;;;;;;;4.02;nan;101582.50;5051603;22;20033;-49
2021/05/03 03:06:57;;;;;;;4.72;2.85;;;;;;;4.18;nan;101579.66;4994445;28;20308;-48
2021/05/03 03:09:22;;;;;;;4.13;3.10;;;;;;;4.14;nan;101579.22;5010607;28;20029;-49
2021/05/03 03:11:48;;;;;;;3.72;2.70;;;;;;;4.17;nan;101585.97;4998605;28;20026;-50
2021/05/03 03:14:14;;;;;;;4.45;3.20;;;;;;;4.20;nan;101586.41;4998331;28;20022;-50
2021/05/03 03:16:40;;;;;;;4.68;3.55;;;;;;;4.20;nan;101588.25;5004160;28;20395;-47
2021/05/03 03:19:06;;;;;;;5.03;3.08;;;;;;;4.19;nan;101590.06;5001165;28;20025;-48
2021/05/03 03:21:32;;;;;;;7.25;2.85;;;;;;;4.27;nan;101586.47;5000822;28;20689;-48
2021/05/03 03:23:57;;;;;;;5.72;3.00;;;;;;;4.23;nan;101585.22;5003013;28;20117;-51
2021/05/03 03:26:23;;;;;;;4.65;2.67;;;;;;;4.23;nan;101587.88;5002174;28;20025;-48
2021/05/03 03:28:48;;;;;;;5.65;3.35;;;;;;;4.20;nan;101589.06;4999403;28;20690;-47
2021/05/03 03:31:14;;;;;;;5.20;2.78;;;;;;;4.17;nan;101586.78;4995305;28;20022;-50
2021/05/03 03:33:39;;;;;;;6.00;3.60;;;;;;;4.18;nan;101590.28;5004106;28;20030;-47
2021/05/03 03:36:05;;;;;;;9.93;3.78;;;;;;;4.21;nan;101593.38;5003635;28;20030;-48
2021/05/03 03:38:31;;;;;;;4.78;3.38;;;;;;;4.26;nan;101595.44;4999845;28;20033;-49
2021/05/03 03:40:57;;;;;;;8.18;3.80;;;;;;;4.23;nan;101593.19;5001295;28;20680;-48
2021/05/03 03:43:23;;;;;;;6.70;4.40;;;;;;;4.30;nan;101588.75;5001143;28;20136;-47
2021/05/03 03:45:48;;;;;;;8.00;4.20;;;;;;;4.41;nan;101590.94;5004913;28;20026;-49
2021/05/03 03:48:14;;;;;;;8.95;4.60;;;;;;;4.41;nan;101598.91;4999693;28;20029;-48
2021/05/03 03:50:39;;;;;;;6.75;4.93;;;;;;;4.40;nan;101599.09;5001995;28;20666;-48
2021/05/03 03:53:05;;;;;;;12.85;5.68;;;;;;;4.43;nan;101607.50;5004488;28;20112;-48
2021/05/03 03:55:31;;;;;;;12.38;5.18;;;;;;;4.47;nan;101606.09;5003706;28;20048;-48
2021/05/03 03:57:56;;;;;;;7.93;5.60;;;;;;;4.41;nan;101604.22;5003243;28;20666;-48
2021/05/03 04:00:22;;;;;;;8.57;5.65;;;;;;;4.45;nan;101610.78;5000150;28;20117;-50
2021/05/03 04:02:49;;;;;;;6.95;5.30;;;;;;;4.51;nan;101609.22;5003710;28;20041;-48
2021/05/03 04:06:10;;;;;;;8.95;5.75;;;;;;;4.39;nan;101616.84;5006500;28;20022;-48
2021/05/03 04:22:04;;;;;;;16.05;6.20;;;;;;;4.36;nan;101625.19;5004807;28;20084;-48
2021/05/03 04:27:04;;;;;;;;;;;;;;;4.38;nan;101630.31;5013363;28;20030;-48
2021/05/03 04:29:29;;;;;;;8.65;5.72;;;;;;;4.39;nan;101637.25;5008439;28;19920;-48
2021/05/03 04:31:55;;;;;;;8.65;5.10;;;;;;;4.38;nan;101639.09;5008149;28;20126;-48
2021/05/03 04:34:20;;;;;;;8.85;6.07;;;;;;;4.37;nan;101637.44;5008305;28;20411;-48
2021/05/03 04:36:46;;;;;;;13.20;6.22;;;;;;;4.35;nan;101639.47;5009348;28;20061;-48
2021/05/03 04:39:12;;;;;;;9.75;5.50;;;;;;;4.42;nan;101645.66;5009802;28;20109;-48
2021/05/03 04:41:38;;;;;;;7.88;5.35;;;;;;;4.45;nan;101645.28;5007776;28;20041;-51
2021/05/03 04:44:04;;;;;;;8.93;5.45;;;;;;;4.46;nan;101646.91;5010026;28;20026;-47
2021/05/03 04:46:29;;;;;;;8.13;5.25;;;;;;;4.49;nan;101651.88;5011688;28;20426;-50
2021/05/03 04:48:55;;;;;;;7.55;5.20;;;;;;;4.49;nan;101654.53;5007293;28;20116;-47
2021/05/03 04:51:20;;;;;;;9.43;5.57;;;;;;;4.48;nan;101655.53;5008768;28;20065;-47
2021/05/03 04:53:46;;;;;;;9.98;5.60;;;;;;;4.50;nan;101652.72;5012193;28;20030;-48
2021/05/03 04:56:11;;;;;;;9.02;6.50;;;;;;;4.47;nan;101656.53;5013039;28;20017;-48
2021/05/03 04:58:37;;;;;;;7.22;5.63;;;;;;;4.49;nan;101659.84;5010038;28;20478;-48
2021/05/03 05:01:02;;;;;;;11.07;4.93;;;;;;;4.55;nan;101659.09;5004758;28;20048;-47
2021/05/03 05:03:28;;;;;;;8.57;5.13;;;;;;;4.51;nan;101660.47;5009452;28;20026;-49
2021/05/03 05:05:53;;;;;;;9.73;5.30;;;;;;;4.62;nan;101666.31;5009721;28;20504;-48
2021/05/03 05:08:21;;;;;;;8.40;5.05;;;;;;;4.62;nan;101661.00;5006470;28;20022;-47
2021/05/03 05:10:47;;;;;;;9.85;5.43;;;;;;;4.75;nan;101656.66;5006040;28;20053;-48
2021/05/03 05:13:12;;;;;;;8.80;6.00;;;;;;;4.71;nan;101659.88;5010601;28;20076;-48
2021/05/03 05:15:38;;;;;;;13.48;6.55;;;;;;;4.73;nan;101668.47;5008569;28;20034;-48
2021/05/03 05:18:06;;;;;;;5.75;4.80;;;;;;;4.83;nan;101663.69;5015215;28;20032;-48
2021/05/03 05:20:32;;;;;;;6.72;5.40;;;;;;;4.83;nan;101661.03;5009010;28;20479;-48
2021/05/03 05:22:57;;;;;;;8.75;5.78;;;;;;;4.84;nan;101665.31;5008923;28;20293;-49
2021/05/03 05:25:23;;;;;;;10.00;5.65;;;;;;;4.85;nan;101669.66;5011551;28;20064;-48
2021/05/03 05:27:49;;;;;;;8.18;5.15;;;;;;;4.81;nan;101666.53;5008310;28;20161;-48
2021/05/03 05:30:15;;;;;;;7.65;4.60;;;;;;;4.80;nan;101669.38;5004665;28;20038;-48
2021/05/03 05:32:41;;;;;;;10.43;5.65;;;;;;;4.81;nan;101671.00;5009555;28;20033;-48
2021/05/03 05:35:08;;;;;;;7.40;5.45;;;;;;;4.81;nan;101674.50;5010050;28;21690;-47
2021/05/03 05:37:34;;;;;;;10.93;5.20;;;;;;;4.88;nan;101681.72;5009216;28;20387;-47
2021/05/03 05:39:59;;;;;;;11.18;4.85;;;;;;;4.85;nan;101681.09;5005770;28;20030;-48
2021/05/03 05:42:25;;;;;;;6.15;4.50;;;;;;;4.83;nan;101690.22;5008039;28;20388;-50
2021/05/03 05:44:50;;;;;;;7.07;4.25;;;;;;;4.81;nan;101687.75;5011734;28;20037;-48
2021/05/03 05:47:16;;;;;;;9.95;4.97;;;;;;;4.80;nan;101696.75;5013487;28;20030;-47
2021/05/03 05:49:41;;;;;;;7.00;4.05;;;;;;;4.83;nan;101696.34;5008290;28;20117;-48
2021/05/03 05:52:07;;;;;;;6.88;3.97;;;;;;;4.86;nan;101689.88;5013187;28;20017;-48
2021/05/03 05:54:33;;;;;;;6.03;4.55;;;;;;;4.84;nan;101697.19;5007443;28;20117;-48
2021/05/03 05:56:58;;;;;;;7.45;4.60;;;;;;;4.86;nan;101697.84;5005080;28;20084;-48
2021/05/03 05:59:24;;;;;;;9.45;5.10;;;;;;;4.82;nan;101707.16;4986607;28;20045;-48
2021/05/03 06:01:50;;;;;;;8.85;4.40;;;;;;;4.82;nan;101701.88;5006062;28;20100;-47
2021/05/03 06:04:15;;;;;;;10.43;4.32;;;;;;;4.82;nan;101707.16;4994664;28;20041;-49
2021/05/03 06:06:41;;;;;;;8.68;4.03;;;;;;;4.80;nan;101710.00;5008455;28;20427;-50
2021/05/03 06:09:07;;;;;;;9.57;3.97;;;;;;;4.84;nan;101707.81;4988064;28;20036;-49
2021/05/03 06:11:32;;;;;;;9.07;4.13;;;;;;;4.86;nan;101711.13;5009191;28;20181;-47
2021/05/03 06:13:59;;;;;;;10.18;4.70;;;;;;;4.88;nan;101703.78;5008378;28;20030;-49
2021/05/03 06:16:24;;;;;;;11.02;4.97;;;;;;;5.03;nan;101707.22;5008951;28;20029;-48
2021/05/03 06:18:50;;;;;;;10.85;5.10;;;;;;;4.91;nan;101713.22;5008924;28;20285;-47
2021/05/03 06:21:15;;;;;;;7.35;4.80;;;;;;;4.89;nan;101701.97;5006905;28;20807;-48
2021/05/03 06:23:41;;;;;;;6.88;4.68;;;;;;;4.95;nan;101711.81;5005845;28;20028;-48
2021/05/03 06:26:07;;;;;;;5.38;3.58;;;;;;;5.02;nan;101700.25;5005847;28;20132;-49
2021/05/03 06:28:32;;;;;;;6.45;3.70;;;;;;;5.02;nan;101708.22;5008034;28;20061;-48
2021/05/03 06:30:58;;;;;;;6.50;4.00;;;;;;;5.03;nan;101704.56;5007560;28;20030;-48
2021/05/03 06:33:26;;;;;;;7.85;4.05;;;;;;;5.11;nan;101712.41;5007398;28;20040;-50
2021/05/03 06:35:52;;;;;;;6.32;4.00;;;;;;;4.96;nan;101711.63;5007409;28;20029;-48
2021/05/03 06:38:18;;;;;;;7.07;3.60;;;;;;;5.01;nan;101709.22;5005389;28;20490;-48
2021/05/03 06:40:44;;;;;;;7.43;3.70;;;;;;;5.01;nan;101708.41;5008223;28;20375;-49
2021/05/03 06:43:10;;;;;;;5.57;3.70;;;;;;;5.27;nan;101710.53;5007011;28;20025;-48
2021/05/03 06:45:36;;;;;;;8.27;3.85;;;;;;;5.10;nan;101716.09;5006894;28;20044;-48
2021/05/03 06:48:04;;;;;;;6.43;3.95;;;;;;;5.07;nan;101719.13;4986393;28;20030;-48
2021/05/03 06:50:29;;;;;;;6.88;2.97;;;;;;;5.13;nan;101715.69;5010183;28;20037;-48
2021/05/03 06:52:55;;;;;;;9.15;3.95;;;;;;;5.14;nan;101717.34;5007438;28;20042;-47
2021/05/03 06:55:21;;;;;;;6.63;3.63;;;;;;;5.33;nan;101720.38;5006779;28;20072;-48
2021/05/03 06:57:47;;;;;;;6.47;3.78;;;;;;;5.21;nan;101713.94;5007085;28;20117;-47
2021/05/03 07:00:15;;;;;;;9.25;4.28;;;;;;;5.35;nan;101729.81;5004079;28;20047;-48
2021/05/03 07:02:41;;;;;;;10.95;4.05;;;;;;;5.36;nan;101722.66;5006977;28;20041;-47
2021/05/03 07:05:08;;;;;;;7.95;3.92;;;;;;;5.21;nan;101719.28;5006795;28;20032;-49
2021/05/03 07:07:33;;;;;;;6.93;3.42;;;;;;;5.42;nan;101724.59;5008109;28;20052;-48
2021/05/03 07:09:59;;;;;;;10.45;4.05;;;;;;;5.16;nan;101727.78;5005988;28;20025;-48
2021/05/03 07:12:26;;;;;;;8.50;3.92;;;;;;;5.34;nan;101724.69;4986109;28;20472;-48
2021/05/03 07:14:51;;;;;;;7.65;3.92;;;;;;;5.27;nan;101734.44;5007456;28;20048;-50
2021/05/03 07:17:17;;;;;;;8.07;4.20;;;;;;;5.28;nan;101736.09;5007350;28;20018;-50
2021/05/03 07:19:42;;;;;;;6.10;3.38;;;;;;;5.44;nan;101735.84;5004071;28;20548;-48
2021/05/03 07:22:10;;;;;;;4.25;2.80;;;;;;;5.18;nan;101736.38;5006885;28;20038;-49
2021/05/03 07:24:37;;;;;;;8.65;3.22;;;;;;;5.35;nan;101743.09;5005680;28;20048;-48
2021/05/03 07:27:05;;;;;;;6.03;2.83;;;;;;;5.29;nan;101735.06;5005239;28;20026;-50
2021/05/03 07:29:30;;;;;;;7.32;3.67;;;;;;;5.19;nan;101748.66;5006076;28;20033;-48
2021/05/03 07:31:56;;;;;;;6.07;3.17;;;;;;;5.20;nan;101754.78;5006842;28;20039;-48
2021/05/03 07:34:21;;;;;;;6.90;3.05;;;;;;;5.20;nan;101754.78;5008877;28;20399;-49
2021/05/03 07:36:47;;;;;;;6.07;2.80;;;;;;;5.19;nan;101764.59;5003995;28;20032;-50
2021/05/03 07:39:13;;;;;;;4.20;2.75;;;;;;;5.22;nan;101758.09;5005948;28;20030;-50
2021/05/03 07:41:41;;;;;;;5.63;2.85;;;;;;;5.12;nan;101755.75;5005448;28;20117;-48
2021/05/03 07:44:08;;;;;;;4.40;3.05;;;;;;;5.30;nan;101755.31;5007586;28;20030;-50
2021/05/03 07:46:36;;;;;;;8.18;2.95;;;;;;;5.47;nan;101764.69;5003187;28;20796;-49
2021/05/03 07:49:04;;;;;;;8.25;3.60;;;;;;;5.45;nan;101764.06;5006894;28;20109;-48
2021/05/03 07:51:30;;;;;;;3.78;2.67;;;;;;;5.38;nan;101763.97;4998385;28;20021;-49
2021/05/03 07:53:55;;;;;;;7.00;2.60;;;;;;;5.46;nan;101768.38;5002254;28;20034;-48
2021/05/03 07:56:21;;;;;;;4.30;2.55;;;;;;;5.37;nan;101777.47;5008679;28;20109;-48
2021/05/03 07:58:48;;;;;;;5.80;3.22;;;;;;;5.25;nan;101768.34;5004320;28;20056;-48
2021/05/03 08:01:13;;;;;;;5.88;3.30;;;;;;;5.26;nan;101773.47;5005861;28;20029;-50
2021/05/03 08:03:40;;;;;;;6.60;2.85;;;;;;;5.24;nan;101774.69;5006301;28;20065;-48
2021/05/03 08:06:07;;;;;;;7.70;2.65;;;;;;;5.27;nan;101771.66;5006859;28;20030;-50
2021/05/03 08:08:33;;;;;;;5.93;3.03;;;;;;;5.37;nan;101772.97;4987207;28;20030;-48
2021/05/03 08:10:59;;;;;;;6.40;3.22;;;;;;;5.70;nan;101770.63;4986837;28;20088;-48
2021/05/03 08:13:27;;;;;;;8.88;3.40;;;;;;;5.58;nan;101780.16;5005138;28;20521;-48
2021/05/03 08:15:53;;;;;;;5.28;3.25;;;;;;;5.50;nan;101764.31;5006906;28;20030;-49
2021/05/03 08:18:19;;;;;;;8.35;3.28;;;;;;;5.67;nan;101776.34;5004103;28;22067;-48
2021/05/03 08:20:45;;;;;;;5.22;2.97;;;;;;;5.71;nan;101774.13;5006725;28;20052;-48
2021/05/03 08:23:12;;;;;;;5.38;2.88;;;;;;;5.75;nan;101776.22;5004729;28;20029;-50
2021/05/03 08:25:38;;;;;;;3.10;2.75;;;;;;;5.60;nan;101783.44;5007046;28;20018;-48
2021/05/03 08:28:04;;;;;;;3.42;2.63;;;;;;;5.57;nan;101786.47;5007959;28;20454;-48
2021/05/03 08:30:30;;;;;;;4.78;2.88;;;;;;;5.66;nan;101779.19;5004209;28;20132;-48
2021/05/03 08:32:55;;;;;;;5.95;3.30;;;;;;;5.54;nan;101780.69;5005853;28;20052;-49
2021/05/03 08:35:21;;;;;;;4.53;2.95;;;;;;;5.60;nan;101783.44;4986115;28;20163;-50
2021/05/03 08:37:46;;;;;;;4.57;3.40;;;;;;;5.76;nan;101791.16;5006486;28;20557;-48
2021/05/03 08:40:13;;;;;;;3.40;2.85;;;;;;;5.63;nan;101793.69;5004944;28;20022;-48
2021/05/03 08:42:40;;;;;;;5.40;3.03;;;;;;;5.60;nan;101799.41;5005464;28;20406;-48
2021/05/03 08:45:08;;;;;;;9.25;2.65;;;;;;;5.59;nan;101802.25;5005851;28;20706;-49
2021/05/03 08:47:36;;;;;;;3.97;2.78;;;;;;;5.56;nan;101803.41;5036577;23;20585;-47
2021/05/03 08:50:08;;;;;;;3.78;2.42;;;;;;;5.66;nan;101808.44;5033349;28;20021;-47
2021/05/03 08:52:46;;;;;;;8.45;3.00;;;;;;;5.70;nan;101802.53;5041591;28;20053;-47
2021/05/03 08:55:13;;;;;;;4.18;2.60;;;;;;;5.66;nan;101806.59;5036276;28;20101;-47
2021/05/03 08:57:42;;;;;;;6.10;2.50;;;;;;;5.93;nan;101799.75;5034445;28;20029;-47
2021/05/03 09:00:16;;;;;;;20.15;2.30;;;;;;;5.96;nan;101802.00;5036451;28;20025;-46
2021/05/03 09:02:46;;;;;;;2.70;1.95;;;;;;;5.83;nan;101806.34;5037604;28;20126;-47
2021/05/03 09:05:13;;;;;;;5.40;2.40;;;;;;;5.86;nan;101803.31;5032218;28;20025;-49
2021/05/03 09:07:49;;;;;;;2.50;2.25;;;;;;;5.81;nan;101806.53;5033938;28;20025;-49
2021/05/03 09:10:17;;;;;;;3.42;2.25;;;;;;;6.06;nan;101809.66;5032774;28;20594;-48
2021/05/03 09:12:42;;;;;;;4.70;2.80;;;;;;;5.90;nan;101804.59;5038969;28;20087;-48
2021/05/03 09:15:08;;;;;;;3.03;2.40;;;;;;;5.85;nan;101806.97;5038453;28;20033;-47
2021/05/03 09:17:39;;;;;;;4.20;2.55;;;;;;;6.04;nan;101809.00;5031923;28;20025;-48
2021/05/03 09:20:12;;;;;;;2.53;2.33;;;;;;;6.06;nan;101809.66;5033387;28;20033;-48
2021/05/03 09:25:31;;;;;;;5.55;2.75;;;;;;;5.96;nan;101801.19;5033364;28;20483;-47
2021/05/03 09:28:12;;;;;;;3.13;2.67;;;;;;;5.99;nan;101809.59;5033894;28;20041;-47
2021/05/03 09:30:45;;;;;;;5.60;2.75;;;;;;;6.22;nan;101805.88;5033290;28;20033;-47
2021/05/03 09:33:17;;;;;;;3.65;2.47;;;;;;;6.01;nan;101807.56;5034290;28;20029;-47
2021/05/03 09:35:56;;;;;;;5.95;3.47;;;;;;;6.05;nan;101808.00;5032746;28;20067;-47
2021/05/03 09:38:48;;;;;;;4.18;3.20;;;;;;;6.30;nan;101806.56;5032417;28;20162;-47
2021/05/03 09:41:22;;;;;;;5.70;2.50;;;;;;;6.98;nan;101804.91;5030443;28;20044;-47
2021/05/03 09:43:56;;;;;;;4.28;2.63;;;;;;;7.32;nan;101800.50;5030496;28;20025;-48
2021/05/03 09:46:28;;;;;;;4.03;2.40;;;;;;;7.20;nan;101805.63;5033191;28;20779;-49
2021/05/03 09:48:55;;;;;;;6.85;2.30;;;;;;;7.68;nan;101800.19;5033345;28;20041;-47
2021/05/03 09:51:34;;;;;;;3.45;2.25;;;;;;;7.51;nan;101802.41;5031698;28;20338;-47
2021/05/03 09:54:13;;;;;;;6.55;2.60;;;;;;;7.10;nan;101801.69;5032477;28;20097;-47
2021/05/03 09:56:56;;;;;;;7.95;2.90;;;;;;;7.51;nan;101794.41;5030970;28;20117;-47
2021/05/03 09:59:33;;;;;;;4.43;2.47;;;;;;;7.69;nan;101795.66;5029755;28;20029;-47
2021/05/03 10:01:59;;;;;;;2.70;2.45;;;;;;;7.71;nan;101799.78;5033170;28;20588;-47
2021/05/03 10:04:25;;;;;;;6.25;2.50;;;;;;;7.66;nan;101796.91;5039553;28;20026;-49
2021/05/03 10:06:50;;;;;;;2.88;2.10;;;;;;;7.60;nan;101802.22;5034832;28;20028;-49
2021/05/03 10:09:16;;;;;;;2.63;2.22;;;;;;;7.87;nan;101794.03;5031568;28;20021;-48
2021/05/03 10:11:41;;;;;;;3.88;2.45;;;;;;;8.09;nan;101792.03;5036126;28;20183;-49
2021/05/03 10:14:07;;;;;;;3.78;1.80;;;;;;;8.09;nan;101794.69;5030815;28;20515;-47
2021/05/03 10:16:32;;;;;;;3.00;1.77;;;;;;;8.41;nan;101789.53;5034427;28;20518;-49
2021/05/03 10:18:58;;;;;;;2.47;2.17;;;;;;;8.09;nan;101789.34;5032157;28;20025;-49
2021/05/03 10:21:24;;;;;;;2.17;1.77;;;;;;;8.36;nan;101792.00;5026524;28;20028;-49
2021/05/03 10:23:51;;;;;;;2.55;1.50;;;;;;;8.84;nan;101794.38;5034429;28;20032;-48
2021/05/03 10:26:17;;;;;;;3.20;2.03;;;;;;;8.91;nan;101779.13;5035828;28;20119;-49
2021/05/03 10:28:55;;;;;;;3.63;2.30;;;;;;;8.90;nan;101782.81;5035564;28;20052;-47
2021/05/03 10:31:22;;;;;;;4.45;2.00;;;;;;;8.94;nan;101790.19;5037867;28;20025;-47
2021/05/03 10:33:48;;;;;;;3.20;2.00;;;;;;;8.64;nan;101778.41;5038580;28;20028;-47
2021/05/03 10:36:53;;;;;;;5.35;1.77;;;;;;;8.28;nan;101787.69;5036799;28;20034;-49
2021/05/03 10:39:28;;;;;;;4.57;1.70;;;;;;;8.11;nan;101789.13;4992431;28;20034;-47
2021/05/03 10:42:10;;;;;;;2.60;1.95;;;;;;;7.94;nan;101783.41;4995268;28;20817;-48
2021/05/03 10:44:39;;;;;;;5.45;2.20;;;;;;;8.27;nan;101795.91;5020941;28;20033;-47
2021/05/03 10:47:49;;;;;;;5.40;1.88;;;;;;;8.94;nan;101789.38;5037630;28;20058;-47
2021/05/03 10:53:21;;;;;;;2.38;1.60;;;;;;;9.11;nan;101782.53;5034499;28;20037;-48
2021/05/03 10:55:51;;;;;;;4.57;1.70;;;;;;;9.90;nan;101774.00;5029104;28;20510;-49
2021/05/03 10:58:17;;;;;;;1.83;1.45;;;;;;;10.07;nan;101778.81;5034446;28;20044;-47
2021/05/03 11:01:11;;;;;;;1.85;1.60;;;;;;;9.98;nan;101778.25;5034558;28;20021;-48
2021/05/03 11:03:55;;;;;;;3.00;1.42;;;;;;;9.28;nan;101775.66;5035277;28;20101;-49
2021/05/03 11:06:38;;;;;;;4.13;1.50;;;;;;;8.52;nan;101780.88;5032919;28;20033;-47
2021/05/03 11:09:27;;;;;;;4.13;1.60;;;;;;;8.13;nan;101785.22;5034923;28;20025;-49
2021/05/03 11:11:55;;;;;;;2.22;1.42;;;;;;;7.39;nan;101789.88;5030273;28;20025;-48
2021/05/03 11:14:21;;;;;;;3.13;1.52;;;;;;;7.11;nan;101805.97;5032493;28;20776;-50
2021/05/03 11:17:02;;;;;;;2.85;1.58;;;;;;;6.62;nan;101799.78;5029032;28;20036;-49
2021/05/03 11:22:08;;;;;;;2.60;1.00;;;;;;;6.74;nan;101789.44;5029286;28;20130;-49
2021/05/03 11:29:54;;;;;;;1.45;1.10;;;;;;;7.47;nan;101777.19;5031272;28;20034;-48
2021/05/03 11:32:15;;;;;;;4.57;1.15;;;;;;;7.81;nan;101778.03;5031907;28;20103;-47
2021/05/03 11:34:58;;;;;;;2.28;1.33;;;;;;;8.07;nan;101778.03;5031210;28;20466;-48
2021/05/03 11:37:33;;;;;;;2.03;1.80;;;;;;;8.33;nan;101781.72;5028453;28;20029;-48
2021/05/03 11:45:05;;;;;;;3.45;1.40;;;;;;;8.45;nan;101762.22;5034412;28;20430;-47
2021/05/03 11:47:33;;;;;;;2.65;1.40;;;;;;;8.40;nan;101754.00;5026842;28;20036;-49
2021/05/03 11:49:59;;;;;;;3.20;1.38;;;;;;;8.63;nan;101764.22;5034699;28;20096;-48
2021/05/03 11:52:32;;;;;;;2.20;1.40;;;;;;;8.96;nan;101771.28;5028864;28;20806;-48
2021/05/03 11:55:09;;;;;;;2.13;1.40;;;;;;;9.95;nan;101768.81;5032282;28;20029;-49
2021/05/03 11:57:39;;;;;;;4.32;1.95;;;;;;;10.33;nan;101767.06;5049993;28;20039;-48
2021/05/03 12:00:07;;;;;;;1.88;1.30;;;;;;;9.84;nan;101768.69;5028503;28;20036;-47
2021/05/03 12:02:33;;;;;;;4.30;1.20;;;;;;;9.63;nan;101770.69;5035590;28;20028;-48
2021/05/03 12:04:59;;;;;;;3.45;1.30;;;;;;;9.43;nan;101767.34;5024877;28;20028;-49
2021/05/03 12:07:30;;;;;;;1.85;0.95;;;;;;;9.76;nan;101759.09;5032334;28;20028;-48
2021/05/03 12:10:12;;;;;;;2.15;1.00;;;;;;;9.52;nan;101758.03;5027365;28;20179;-50
2021/05/03 12:12:48;;;;;;;1.13;0.90;;;;;;;9.99;nan;101753.13;5031274;28;20036;-49
2021/05/03 12:15:17;;;;;;;4.90;1.08;;;;;;;11.00;nan;101747.31;5030200;28;20033;-47
2021/05/03 12:17:42;;;;;;;2.17;1.05;;;;;;;11.53;nan;101749.25;5027815;28;20029;-47
2021/05/03 12:20:11;;;;;;;2.03;0.95;;;;;;;12.37;nan;101745.34;5031481;28;20110;-47
2021/05/03 12:22:38;;;;;;;3.85;1.10;;;;;;;12.38;nan;101743.47;5031207;28;20029;-47
2021/05/03 12:25:08;;;;;;;2.10;0.90;;;;;;;11.53;nan;101751.94;5045616;28;20025;-47
2021/05/03 12:27:34;;;;;;;0.95;0.70;;;;;;;11.04;nan;101764.59;5027477;28;20032;-49